Time;durP1;ratioP1;P1;durP2;ratioP2;P2;SDS_P1;SDS_P2;PMS_P1;PMS_P2;Temp;Humidity;BMP_temperature;BMP_pressure;BME280_temperature;BME280_humidity;BME280_pressure;Samples;Min_cycle;Max_cycle;Signal;HPM_P1;HPM_P2
2022/05/28 00:00:33;;;;;;;8.82;5.78;;;;;;;19.62;86.95;92974.06;4991675;28;20046;-79
2022/05/28 00:03:01;;;;;;;11.18;4.97;;;;;;;19.62;86.78;92967.06;4991091;28;20149;-80
2022/05/28 00:05:28;;;;;;;11.88;5.93;;;;;;;19.62;86.68;92972.25;4991168;28;20509;-80
2022/05/28 00:07:55;;;;;;;10.18;5.78;;;;;;;19.53;88.01;92960.84;4990913;28;20521;-80
2022/05/28 00:10:22;;;;;;;12.13;5.85;;;;;;;19.52;89.21;92967.13;4990731;28;20134;-80
2022/05/28 00:12:51;;;;;;;13.55;5.95;;;;;;;19.46;88.27;92966.38;4991214;28;20054;-79
2022/05/28 00:15:18;;;;;;;11.57;5.63;;;;;;;18.77;89.12;92869.91;4991212;28;20046;-79
2022/05/28 00:17:45;;;;;;;13.70;5.85;;;;;;;19.27;89.65;92947.22;4990350;28;20042;-79
2022/05/28 00:20:13;;;;;;;12.38;6.35;;;;;;;19.27;92.44;92962.84;4990714;28;20058;-79
2022/05/28 00:22:41;;;;;;;12.02;6.13;;;;;;;19.11;91.28;92952.53;4990826;28;20051;-79
2022/05/28 00:25:11;;;;;;;10.70;6.10;;;;;;;19.03;91.80;92938.25;4990777;28;20049;-80
2022/05/28 00:27:37;;;;;;;9.10;5.32;;;;;;;19.09;92.04;92952.81;4990339;28;20124;-79
2022/05/28 00:30:08;;;;;;;14.45;6.03;;;;;;;19.00;91.49;92935.38;4991051;28;20391;-79
2022/05/28 00:32:35;;;;;;;11.02;5.82;;;;;;;19.01;91.75;92942.91;4990723;28;20501;-79
2022/05/28 00:35:02;;;;;;;13.00;6.30;;;;;;;18.97;92.12;92934.09;4990657;28;20057;-79
2022/05/28 00:37:29;;;;;;;10.30;6.22;;;;;;;19.03;91.59;92943.44;4990724;28;20046;-80
2022/05/28 00:39:56;;;;;;;10.43;5.45;;;;;;;19.07;91.87;92944.47;4990566;28;20070;-80
2022/05/28 00:42:23;;;;;;;12.80;6.05;;;;;;;19.06;91.53;92947.34;4990410;28;20413;-80
2022/05/28 00:44:50;;;;;;;10.15;5.80;;;;;;;19.08;91.15;92945.25;4990766;28;20067;-79
2022/05/28 00:47:18;;;;;;;13.43;6.10;;;;;;;19.10;90.71;92948.38;4990359;28;20049;-80
2022/05/28 00:49:45;;;;;;;10.32;6.22;;;;;;;19.15;90.09;92940.53;4992104;28;20076;-80
2022/05/28 00:52:14;;;;;;;9.93;5.50;;;;;;;19.16;89.81;92936.88;4990445;28;20050;-80
2022/05/28 00:54:45;;;;;;;10.32;6.15;;;;;;;19.12;89.79;92916.88;4990171;28;20043;-80
2022/05/28 00:57:14;;;;;;;9.90;5.72;;;;;;;19.17;90.01;92922.81;4990685;28;20564;-82
2022/05/28 00:59:41;;;;;;;13.75;6.32;;;;;;;19.06;90.48;92911.69;4990323;28;20056;-81
2022/05/28 01:02:16;;;;;;;9.40;6.22;;;;;;;19.16;91.04;92915.28;4990417;28;20072;-80
2022/05/28 01:04:50;;;;;;;13.80;6.30;;;;;;;19.14;91.88;92922.56;4992098;28;20066;-81
2022/05/28 01:07:30;;;;;;;11.95;6.22;;;;;;;19.06;92.65;92910.91;4990398;28;20061;-80
2022/05/28 01:10:02;;;;;;;12.80;5.70;;;;;;;19.07;92.49;92920.28;4990185;28;20485;-80
2022/05/28 01:12:38;;;;;;;14.18;6.68;;;;;;;18.95;92.81;92915.38;4992095;28;20417;-80
2022/05/28 01:15:10;;;;;;;10.35;6.13;;;;;;;18.92;93.21;92915.91;4990249;28;20074;-80
2022/05/28 01:17:42;;;;;;;12.43;6.80;;;;;;;18.95;93.18;92925.78;4989692;28;20046;-81
2022/05/28 01:20:16;;;;;;;14.50;7.28;;;;;;;18.69;95.49;92929.28;4988598;28;20052;-81
2022/05/28 01:23:00;;;;;;;15.37;6.47;;;;;;;18.68;93.94;92958.94;4990992;28;20057;-81
2022/05/28 01:25:35;;;;;;;15.75;8.38;;;;;;;18.42;99.07;92979.03;4989410;28;20058;-83
2022/05/28 01:28:10;;;;;;;16.88;8.73;;;;;;;18.35;100.00;92976.72;4991950;28;20050;-83
2022/05/28 01:30:41;;;;;;;16.45;8.30;;;;;;;18.18;100.00;92940.63;4991299;28;20048;-86
2022/05/28 01:33:10;;;;;;;15.85;7.60;;;;;;;18.29;100.00;92988.19;4992041;28;20064;-86
2022/05/28 01:35:38;;;;;;;14.93;7.45;;;;;;;18.37;100.00;92989.47;4991486;28;20061;-85
2022/05/28 01:38:07;;;;;;;16.00;7.68;;;;;;;18.42;99.14;92969.44;4991585;28;20053;-84
2022/05/28 01:40:35;;;;;;;20.23;7.97;;;;;;;18.67;97.98;92985.22;4989693;28;20442;-83
2022/05/28 01:43:07;;;;;;;18.05;8.52;;;;;;;18.72;97.34;92980.00;4990264;28;20054;-83
2022/05/28 01:45:36;;;;;;;18.17;6.95;;;;;;;18.58;96.75;92966.00;4979282;28;20125;-84
2022/05/28 01:48:06;;;;;;;18.42;7.88;;;;;;;18.58;96.77;92968.59;4981572;28;20050;-83
2022/05/28 01:50:37;;;;;;;21.75;6.88;;;;;;;18.63;95.00;92971.97;4986780;28;20058;-83
2022/05/28 01:53:08;;;;;;;13.50;5.93;;;;;;;18.74;95.11;92987.56;4989993;28;20089;-84
2022/05/28 01:55:40;;;;;;;14.13;5.95;;;;;;;18.73;94.14;93012.78;4991205;28;20053;-85
2022/05/28 01:58:09;;;;;;;11.48;5.93;;;;;;;18.68;94.85;93015.41;4989509;28;20056;-85
2022/05/28 02:00:35;;;;;;;13.63;6.38;;;;;;;18.47;95.63;92996.47;4989530;28;20058;-83
2022/05/28 02:03:04;;;;;;;8.93;5.50;;;;;;;18.49;96.50;93007.38;4990325;28;20040;-82
2022/05/28 02:05:31;;;;;;;12.82;5.57;;;;;;;18.51;94.78;92992.31;4988077;28;20073;-81
2022/05/28 02:07:58;;;;;;;11.63;6.53;;;;;;;18.65;94.14;93005.53;4989466;28;20528;-81
2022/05/28 02:10:25;;;;;;;12.07;5.43;;;;;;;18.72;94.32;92998.22;4986151;28;20043;-81
2022/05/28 02:12:57;;;;;;;8.48;5.75;;;;;;;18.66;92.75;92978.47;4991022;28;20049;-82
2022/05/28 02:15:38;;;;;;;11.90;5.70;;;;;;;18.85;nan;93004.69;4990379;28;20455;-80
2022/05/28 02:18:14;;;;;;;17.13;6.53;;;;;;;18.92;91.88;93002.56;4989681;28;20043;-80
2022/05/28 02:20:51;;;;;;;19.05;8.95;;;;;;;18.93;91.85;92990.34;4986072;28;20046;-80
2022/05/28 02:23:22;;;;;;;23.00;10.18;;;;;;;18.94;93.01;92991.91;4994022;28;20057;-81
2022/05/28 02:25:54;;;;;;;20.55;9.20;;;;;;;18.91;92.40;92989.81;4992628;28;20049;-81
2022/05/28 02:28:23;;;;;;;22.30;9.88;;;;;;;19.00;91.68;92985.63;4995063;28;20054;-81
2022/05/28 02:30:56;;;;;;;22.08;9.45;;;;;;;18.95;92.83;92983.03;4992794;28;20049;-81
2022/05/28 02:33:24;;;;;;;19.30;9.35;;;;;;;18.84;92.57;92956.25;4994519;28;20056;-81
2022/05/28 02:35:50;;;;;;;24.20;9.07;;;;;;;18.90;90.73;92973.44;4991163;28;20125;-81
2022/05/28 02:38:17;;;;;;;20.40;8.68;;;;;;;18.91;91.51;92964.59;4994728;28;20057;-81
2022/05/28 02:40:44;;;;;;;21.23;9.60;;;;;;;18.77;90.31;92940.16;4991290;28;20042;-81
2022/05/28 02:43:12;;;;;;;20.92;8.95;;;;;;;18.92;90.27;92967.94;4984608;28;20050;-80
2022/05/28 02:45:39;;;;;;;16.90;7.15;;;;;;;18.88;91.20;92977.34;4983140;28;20182;-81
2022/05/28 02:48:08;;;;;;;16.27;7.07;;;;;;;18.85;90.89;92977.88;4994685;28;20035;-80
2022/05/28 02:50:35;;;;;;;12.27;6.53;;;;;;;18.81;90.29;92981.03;4992104;28;20501;-81
2022/05/28 02:53:02;;;;;;;18.33;8.00;;;;;;;18.72;91.38;92979.22;4993459;28;20046;-80
2022/05/28 02:55:29;;;;;;;15.52;6.95;;;;;;;18.69;91.68;92970.13;4993414;28;20049;-81
2022/05/28 02:57:55;;;;;;;15.73;7.20;;;;;;;18.66;90.50;92968.81;4992703;28;20777;-80
2022/05/28 03:00:22;;;;;;;13.05;6.47;;;;;;;18.52;90.60;92945.22;4992938;28;20054;-80
2022/05/28 03:02:49;;;;;;;13.70;6.38;;;;;;;18.58;91.35;92958.19;4982611;28;20056;-81
2022/05/28 03:05:20;;;;;;;10.43;5.10;;;;;;;18.52;91.08;92958.22;4983018;28;20508;-80
2022/05/28 03:07:47;;;;;;;10.73;5.78;;;;;;;18.51;91.36;92959.25;4981401;28;20051;-80
2022/05/28 03:10:14;;;;;;;13.85;6.05;;;;;;;18.49;91.40;92957.97;4983383;28;20046;-80
2022/05/28 03:12:41;;;;;;;14.27;5.32;;;;;;;18.50;91.36;92960.31;4990744;28;20055;-79
2022/05/28 03:15:10;;;;;;;16.13;6.85;;;;;;;18.20;92.81;92922.97;4991496;28;20043;-81
2022/05/28 03:17:37;;;;;;;17.48;8.13;;;;;;;18.41;94.11;92961.88;4994071;28;20050;-81
2022/05/28 03:20:05;;;;;;;17.50;7.20;;;;;;;18.32;93.50;92950.50;4993690;28;20058;-80
2022/05/28 03:22:33;;;;;;;15.63;7.88;;;;;;;18.33;93.83;92957.25;4996374;28;20046;-81
2022/05/28 03:25:00;;;;;;;15.60;7.70;;;;;;;18.32;93.72;92953.09;4993708;28;20047;-81
2022/05/28 03:27:27;;;;;;;13.05;7.97;;;;;;;18.32;94.18;92951.25;4995374;28;20069;-81
2022/05/28 03:29:53;;;;;;;13.80;7.57;;;;;;;18.30;94.54;92950.75;4993414;28;20081;-82
2022/05/28 03:32:20;;;;;;;18.30;8.15;;;;;;;18.25;94.12;92945.56;4982585;28;20061;-82
2022/05/28 03:34:47;;;;;;;25.25;9.38;;;;;;;18.27;94.40;92953.84;4994585;28;20056;-82
2022/05/28 03:37:14;;;;;;;16.40;8.27;;;;;;;18.19;94.61;92941.41;4992791;28;20135;-84
2022/05/28 03:39:42;;;;;;;19.25;8.35;;;;;;;18.22;94.76;92946.06;4995447;28;21531;-82
2022/05/28 03:42:09;;;;;;;23.55;9.50;;;;;;;18.25;94.20;92951.53;4991643;28;20070;-81
2022/05/28 03:44:36;;;;;;;22.00;8.90;;;;;;;18.26;95.65;92950.50;4984285;28;20046;-82
2022/05/28 03:47:04;;;;;;;18.08;7.60;;;;;;;18.23;94.96;92948.41;4991597;28;20070;-82
2022/05/28 03:49:34;;;;;;;16.70;7.97;;;;;;;18.24;94.46;92942.16;4991517;28;20050;-81
2022/05/28 03:52:01;;;;;;;24.23;9.27;;;;;;;18.26;95.37;92947.91;4991156;28;20061;-85
2022/05/28 03:54:28;;;;;;;18.75;8.05;;;;;;;18.16;94.98;92919.31;4991434;28;20090;-84
2022/05/28 03:57:00;;;;;;;19.58;7.63;;;;;;;18.33;94.22;92928.63;4990163;28;20462;-84
2022/05/28 03:59:27;;;;;;;18.85;7.25;;;;;;;18.34;93.55;92928.38;4991829;28;20154;-84
2022/05/28 04:01:54;;;;;;;18.13;7.35;;;;;;;18.35;93.20;92924.72;4992263;28;20039;-84
2022/05/28 04:04:21;;;;;;;12.35;5.82;;;;;;;18.37;93.63;92925.22;4990954;28;20497;-83
2022/05/28 04:06:48;;;;;;;17.35;6.72;;;;;;;18.39;92.87;92917.19;4994325;28;20058;-83
2022/05/28 04:09:15;;;;;;;19.17;7.78;;;;;;;18.35;93.10;92916.13;4991335;28;20070;-84
2022/05/28 04:11:42;;;;;;;13.80;7.45;;;;;;;18.50;93.21;92931.69;4989716;28;20497;-82
2022/05/28 04:14:10;;;;;;;15.55;6.40;;;;;;;18.50;94.13;92946.50;4991672;28;20046;-82
2022/05/28 04:16:37;;;;;;;18.20;6.88;;;;;;;18.51;93.28;92942.88;4993383;28;20050;-81
2022/05/28 04:19:04;;;;;;;15.65;6.35;;;;;;;18.48;92.75;92915.59;4991022;28;20738;-80
2022/05/28 04:21:31;;;;;;;17.27;6.38;;;;;;;18.70;91.60;92930.03;4991379;28;20046;-80
2022/05/28 04:23:58;;;;;;;19.55;6.57;;;;;;;18.76;92.07;92925.59;4983681;28;20134;-80
2022/05/28 04:26:25;;;;;;;13.35;5.55;;;;;;;18.86;90.68;92920.38;4992294;28;20192;-79
2022/05/28 04:28:52;;;;;;;10.85;5.80;;;;;;;18.93;89.83;92920.84;4991847;28;20058;-79
2022/05/28 04:31:20;;;;;;;13.32;5.88;;;;;;;19.07;89.09;92920.28;4986824;28;20890;-79
2022/05/28 04:33:47;;;;;;;14.93;5.63;;;;;;;19.14;88.71;92912.94;4990717;28;20046;-79
2022/05/28 04:36:15;;;;;;;12.40;6.43;;;;;;;19.12;88.34;92903.84;4990655;28;20073;-79
2022/05/28 04:38:42;;;;;;;11.65;5.50;;;;;;;19.22;88.75;92907.16;4991179;28;20061;-79
2022/05/28 04:41:09;;;;;;;12.02;5.38;;;;;;;19.22;89.34;92919.41;4992337;28;20061;-79
2022/05/28 04:43:36;;;;;;;10.82;5.32;;;;;;;19.15;90.68;92905.91;4989880;28;20047;-79
2022/05/28 04:46:03;;;;;;;10.82;5.47;;;;;;;19.08;89.52;92906.97;4990127;28;20050;-79
2022/05/28 04:48:31;;;;;;;14.75;5.75;;;;;;;19.12;89.86;92914.25;4990718;28;20050;-80
2022/05/28 04:50:58;;;;;;;11.48;5.38;;;;;;;19.05;90.06;92917.94;4988906;28;20042;-79
2022/05/28 04:53:24;;;;;;;11.32;5.32;;;;;;;19.10;90.77;92924.94;4990010;28;20046;-79
2022/05/28 04:55:53;;;;;;;12.77;5.25;;;;;;;19.07;89.72;92928.09;4990432;28;20046;-79
2022/05/28 04:58:20;;;;;;;14.95;6.22;;;;;;;19.01;90.89;92924.69;4988600;28;20057;-79
2022/05/28 05:00:49;;;;;;;10.02;5.43;;;;;;;19.00;89.86;92938.78;4990004;28;20054;-80
2022/05/28 05:03:16;;;;;;;10.93;5.45;;;;;;;18.89;90.97;92914.59;4988129;28;20493;-79
2022/05/28 05:05:44;;;;;;;13.60;5.70;;;;;;;18.93;93.11;92936.44;4988344;28;20054;-81
2022/05/28 05:08:12;;;;;;;15.43;5.97;;;;;;;18.50;97.36;92946.50;4990125;28;20073;-82
2022/05/28 05:10:39;;;;;;;15.00;6.82;;;;;;;18.53;95.29;92961.59;4989820;28;20053;-82
2022/05/28 05:13:06;;;;;;;16.02;7.40;;;;;;;18.51;95.27;92959.25;4989765;28;20517;-81
2022/05/28 05:15:33;;;;;;;11.55;7.32;;;;;;;18.72;94.75;92958.41;4989911;28;20050;-81
2022/05/28 05:18:00;;;;;;;14.45;8.02;;;;;;;18.77;95.72;92951.38;4987703;28;20058;-81
2022/05/28 05:20:27;;;;;;;17.67;7.80;;;;;;;18.76;96.35;92959.44;4989265;28;20057;-81
2022/05/28 05:22:56;;;;;;;15.77;8.27;;;;;;;18.73;98.02;92957.34;4989911;28;20050;-81
2022/05/28 05:25:24;;;;;;;14.18;8.32;;;;;;;18.91;94.67;92956.78;4989487;28;20047;-80
2022/05/28 05:27:51;;;;;;;25.75;9.60;;;;;;;19.09;92.79;92950.22;4989836;28;20050;-81
2022/05/28 05:30:18;;;;;;;22.27;9.98;;;;;;;19.32;90.37;92958.41;4988089;28;20046;-81
2022/05/28 05:32:45;;;;;;;25.80;10.38;;;;;;;19.43;91.49;92950.50;4989788;28;20050;-80
2022/05/28 05:35:12;;;;;;;23.90;9.77;;;;;;;19.73;90.01;92962.53;4989386;28;20065;-81
2022/05/28 05:37:39;;;;;;;27.27;11.65;;;;;;;19.90;88.20;92956.94;4989903;28;20696;-82
2022/05/28 05:40:09;;;;;;;26.38;9.57;;;;;;;19.98;87.70;92952.97;4983934;28;20065;-83
2022/05/28 05:42:36;;;;;;;26.90;11.07;;;;;;;20.11;86.60;92954.19;4987628;28;20057;-81
2022/05/28 05:45:02;;;;;;;28.67;11.88;;;;;;;20.15;85.94;92947.34;4989191;28;20509;-82
2022/05/28 05:47:29;;;;;;;28.85;11.07;;;;;;;20.32;86.04;92947.97;4988132;28;20050;-80
2022/05/28 05:49:56;;;;;;;22.23;10.23;;;;;;;20.52;83.27;92955.59;4989475;28;20046;-82
2022/05/28 05:52:23;;;;;;;17.83;6.88;;;;;;;20.64;81.54;92957.78;4987425;28;20061;-83
2022/05/28 05:54:50;;;;;;;14.88;6.10;;;;;;;20.70;81.63;92956.69;4988766;28;20043;-82
2022/05/28 05:57:18;;;;;;;13.13;4.10;;;;;;;20.98;79.82;92960.56;4989430;28;20043;-82
2022/05/28 05:59:45;;;;;;;13.07;4.65;;;;;;;21.31;77.06;92952.81;4989263;28;20042;-82
2022/05/28 06:02:12;;;;;;;14.15;6.38;;;;;;;21.57;74.25;92948.00;4989201;28;20046;-81
2022/05/28 06:04:39;;;;;;;11.48;5.20;;;;;;;21.84;73.05;92951.03;4987213;28;20453;-82
2022/05/28 06:07:07;;;;;;;13.98;5.68;;;;;;;21.95;69.35;92951.63;4989246;28;20046;-83
2022/05/28 06:09:34;;;;;;;18.35;5.65;;;;;;;22.24;71.02;92937.53;4986033;28;20058;-85
2022/05/28 06:12:01;;;;;;;11.90;5.13;;;;;;;22.42;69.73;92955.00;4981977;28;20054;-82
2022/05/28 06:14:29;;;;;;;14.32;4.55;;;;;;;22.44;69.17;92954.69;4971450;28;20101;-81
2022/05/28 06:16:56;;;;;;;10.80;4.38;;;;;;;22.55;67.31;92948.22;4986567;28;20057;-83
2022/05/28 06:19:23;;;;;;;16.27;4.55;;;;;;;23.10;66.78;92943.25;4988557;28;20054;-79
2022/05/28 06:21:49;;;;;;;10.32;4.05;;;;;;;23.56;63.15;92943.31;4988680;28;20051;-79
2022/05/28 06:24:16;;;;;;;15.00;4.25;;;;;;;24.05;62.06;92946.06;4987780;28;20049;-79
2022/05/28 06:26:43;;;;;;;14.00;4.72;;;;;;;24.51;59.53;92940.75;4988216;28;20061;-83
2022/05/28 06:29:10;;;;;;;12.35;4.57;;;;;;;24.48;57.50;92880.97;4989072;28;20138;-81
2022/05/28 06:31:38;;;;;;;12.02;4.80;;;;;;;25.20;56.20;92931.50;4986570;28;20049;-80
2022/05/28 06:34:05;;;;;;;9.63;4.40;;;;;;;25.43;55.64;92923.47;4988366;28;20054;-82
2022/05/28 06:36:32;;;;;;;16.20;4.47;;;;;;;25.65;52.58;92932.28;4986651;28;20413;-82
2022/05/28 06:38:59;;;;;;;17.45;5.40;;;;;;;25.67;53.92;92930.09;4988879;28;20042;-82
2022/05/28 06:41:25;;;;;;;11.60;4.32;;;;;;;25.93;54.77;92923.25;4986737;28;20056;-81
2022/05/28 06:43:53;;;;;;;8.60;4.03;;;;;;;26.17;54.63;92925.34;4988150;28;20042;-81
2022/05/28 06:46:20;;;;;;;8.88;4.03;;;;;;;26.30;52.21;92926.28;4988354;28;20050;-81
2022/05/28 06:48:48;;;;;;;7.85;3.22;;;;;;;26.47;50.76;92917.50;4988633;28;20050;-80
2022/05/28 06:51:15;;;;;;;6.20;2.85;;;;;;;26.42;53.09;92915.06;4989235;28;20042;-80
2022/05/28 06:53:47;;;;;;;9.35;3.08;;;;;;;26.59;51.18;92908.94;4989856;28;20046;-80
2022/05/28 06:56:14;;;;;;;8.10;4.38;;;;;;;26.78;52.63;92905.13;4988686;28;20142;-81
2022/05/28 06:58:53;;;;;;;6.78;3.35;;;;;;;27.07;52.11;92906.19;4988222;28;20054;-81
2022/05/28 07:01:20;;;;;;;5.82;2.88;;;;;;;27.21;50.25;92906.72;4989149;28;20130;-82
2022/05/28 07:04:17;;;;;;;8.27;2.80;;;;;;;27.35;50.80;92893.28;4984998;28;20135;-81
2022/05/28 07:06:52;;;;;;;9.20;2.63;;;;;;;27.41;50.45;92891.22;4986287;28;20046;-81
2022/05/28 07:09:19;;;;;;;6.38;2.80;;;;;;;27.35;49.15;92881.94;4988461;28;20055;-80
2022/05/28 07:11:46;;;;;;;6.68;2.72;;;;;;;27.45;49.68;92880.78;4988720;28;20054;-80
2022/05/28 07:14:13;;;;;;;7.65;3.78;;;;;;;27.69;48.21;92885.41;4988895;28;20070;-80
2022/05/28 07:16:42;;;;;;;9.13;4.57;;;;;;;28.01;48.64;92880.38;4988518;28;20058;-81
2022/05/28 07:19:09;;;;;;;8.60;4.55;;;;;;;28.07;48.39;92862.47;4988638;28;20054;-81
2022/05/28 07:21:37;;;;;;;7.85;4.15;;;;;;;28.42;47.50;92871.88;4988655;28;20050;-81
2022/05/28 07:24:04;;;;;;;10.98;4.72;;;;;;;28.74;47.79;92866.00;4986388;28;20053;-81
2022/05/28 07:26:31;;;;;;;9.73;4.78;;;;;;;28.94;46.49;92870.38;4988966;28;20115;-82
2022/05/28 07:28:57;;;;;;;14.48;5.85;;;;;;;29.05;46.16;92851.41;4992365;28;20046;-82
2022/05/28 07:31:24;;;;;;;12.88;5.50;;;;;;;29.19;45.19;92862.41;4991607;28;20054;-80
2022/05/28 07:33:51;;;;;;;15.35;5.20;;;;;;;29.55;45.51;92867.13;4992189;28;20046;-82
2022/05/28 07:36:21;;;;;;;10.55;5.00;;;;;;;29.72;43.61;92860.78;4995995;28;20045;-81
2022/05/28 07:38:50;;;;;;;14.30;5.05;;;;;;;29.83;43.08;92863.66;4992535;28;20054;-81
2022/05/28 07:41:21;;;;;;;11.32;5.03;;;;;;;30.11;42.86;92855.69;4992379;28;20054;-83
2022/05/28 07:43:48;;;;;;;13.07;4.43;;;;;;;30.37;41.73;92856.28;4992033;28;20175;-82
2022/05/28 07:46:18;;;;;;;9.15;4.00;;;;;;;30.41;41.54;92851.84;4991694;28;20046;-81
2022/05/28 07:48:45;;;;;;;10.38;4.13;;;;;;;30.40;40.52;92843.09;4991744;28;20497;-82
2022/05/28 07:51:12;;;;;;;10.18;4.10;;;;;;;30.57;41.10;92843.84;4992300;28;20061;-82
2022/05/28 07:53:39;;;;;;;8.77;3.70;;;;;;;30.68;41.08;92838.75;4991780;28;20054;-83
2022/05/28 07:56:08;;;;;;;11.80;5.10;;;;;;;30.70;40.70;92839.22;4991849;28;20042;-81
2022/05/28 07:58:36;;;;;;;9.68;4.82;;;;;;;30.56;40.56;92837.00;4992231;28;20069;-83
2022/05/28 08:01:04;;;;;;;13.32;4.55;;;;;;;30.34;41.95;92841.84;4991928;28;20465;-83
2022/05/28 08:03:31;;;;;;;13.32;4.93;;;;;;;30.73;41.88;92843.81;4991776;28;20105;-80
2022/05/28 08:05:58;;;;;;;16.08;5.55;;;;;;;30.96;41.27;92843.16;4991759;28;20070;-81
2022/05/28 08:08:28;;;;;;;11.23;5.05;;;;;;;30.92;40.84;92832.47;4991840;28;20065;-81
2022/05/28 08:10:58;;;;;;;10.77;5.25;;;;;;;29.75;42.61;92830.97;4991653;28;20042;-81
2022/05/28 08:13:26;;;;;;;14.50;5.55;;;;;;;29.81;43.83;92837.53;4991852;28;20069;-82
2022/05/28 08:15:55;;;;;;;15.40;5.28;;;;;;;30.04;43.66;92836.97;4991835;28;20054;-81
2022/05/28 08:18:25;;;;;;;11.85;4.60;;;;;;;29.95;42.46;92828.41;4991619;28;20133;-81
2022/05/28 08:23:38;;;;;;;15.95;4.50;;;;;;;30.30;41.58;92837.56;4993170;28;20061;-81
2022/05/28 08:26:05;;;;;;;17.85;5.68;;;;;;;30.35;41.92;92831.97;4991123;28;20050;-82
2022/05/28 08:28:35;;;;;;;14.13;5.68;;;;;;;30.58;41.51;92839.31;4991102;28;20061;-79
2022/05/28 08:31:02;;;;;;;8.77;4.07;;;;;;;30.75;40.11;92820.41;4989468;28;20057;-80
2022/05/28 08:33:29;;;;;;;7.50;3.92;;;;;;;30.69;41.25;92800.59;4990419;28;20444;-81
2022/05/28 08:35:56;;;;;;;8.68;4.47;;;;;;;30.72;42.13;92815.78;4988698;28;20053;-81
2022/05/28 08:38:24;;;;;;;7.60;4.30;;;;;;;30.95;41.80;92817.75;4989774;28;20039;-80
2022/05/28 08:40:57;;;;;;;7.22;4.15;;;;;;;31.19;40.93;92819.34;4990779;28;20408;-82
2022/05/28 08:43:27;;;;;;;10.07;4.45;;;;;;;31.35;40.87;92823.06;4990400;28;20050;-81
2022/05/28 08:45:55;;;;;;;13.38;4.47;;;;;;;31.42;40.04;92817.91;4990483;28;20046;-81
2022/05/28 08:48:28;;;;;;;9.50;4.70;;;;;;;31.58;40.33;92817.78;4990177;28;20061;-82
2022/05/28 08:50:58;;;;;;;10.27;4.55;;;;;;;31.65;40.52;92807.28;4990391;28;20051;-82
2022/05/28 08:53:30;;;;;;;8.68;3.83;;;;;;;31.78;40.40;92817.72;4990277;28;20053;-82
2022/05/28 08:56:01;;;;;;;8.48;3.92;;;;;;;32.04;39.48;92814.41;4990436;28;20422;-82
2022/05/28 08:58:31;;;;;;;8.70;4.05;;;;;;;32.00;39.52;92794.97;4990353;28;20054;-81
2022/05/28 09:01:04;;;;;;;8.65;4.60;;;;;;;32.33;38.32;92814.06;4990395;28;20101;-81
2022/05/28 09:03:35;;;;;;;7.05;4.13;;;;;;;31.97;37.44;92816.94;4988558;28;20058;-78
2022/05/28 09:06:06;;;;;;;9.52;3.65;;;;;;;31.94;39.36;92804.38;4988533;28;20046;-80
2022/05/28 09:08:37;;;;;;;8.90;4.75;;;;;;;32.04;39.10;92811.75;4988547;28;20046;-80
2022/05/28 09:11:07;;;;;;;7.30;3.92;;;;;;;32.26;39.06;92822.72;4988783;28;20038;-80
2022/05/28 09:13:39;;;;;;;11.05;4.78;;;;;;;32.25;38.16;92811.31;4987842;28;20054;-80
2022/05/28 09:16:23;;;;;;;15.65;4.18;;;;;;;30.69;38.69;92803.22;4986889;28;20086;-79
2022/05/28 09:18:53;;;;;;;12.47;4.73;;;;;;;29.37;41.01;92803.91;4989669;28;20046;-79
2022/05/28 09:21:21;;;;;;;9.90;4.72;;;;;;;27.97;44.60;92804.84;4988552;28;20086;-79
2022/05/28 09:23:53;;;;;;;19.38;6.22;;;;;;;28.22;44.89;92799.53;4987997;28;20672;-80
2022/05/28 09:26:30;;;;;;;10.23;4.65;;;;;;;28.47;44.93;92791.63;4988359;28;20050;-80
2022/05/28 09:29:09;;;;;;;14.48;4.72;;;;;;;29.03;44.48;92790.19;4989944;28;20042;-80
2022/05/28 09:31:59;;;;;;;11.23;5.13;;;;;;;28.93;42.75;92786.91;4987278;28;20054;-81
2022/05/28 09:34:41;;;;;;;10.90;4.05;;;;;;;28.65;44.02;92784.22;4988723;28;20050;-80
2022/05/28 09:37:17;;;;;;;10.90;4.70;;;;;;;29.01;43.11;92779.19;4988015;28;20054;-80
2022/05/28 09:39:55;;;;;;;11.82;4.20;;;;;;;29.13;44.91;92781.00;4989486;28;20494;-81
2022/05/28 09:42:31;;;;;;;10.02;4.57;;;;;;;29.57;43.50;92775.72;4987737;28;20054;-81
2022/05/28 09:45:12;;;;;;;11.50;5.05;;;;;;;29.71;42.49;92774.53;4989005;28;20150;-81
2022/05/28 09:47:49;;;;;;;11.85;4.97;;;;;;;30.18;41.87;92770.34;4988469;28;20046;-81
2022/05/28 09:50:26;;;;;;;9.27;4.13;;;;;;;30.54;41.08;92765.78;4989472;28;20042;-80
2022/05/28 09:55:56;;;;;;;13.57;4.20;;;;;;;28.60;42.67;92752.75;4988654;28;20169;-80
2022/05/28 09:58:25;;;;;;;11.93;4.93;;;;;;;28.81;43.30;92749.91;4988691;28;20050;-79
2022/05/28 10:01:03;;;;;;;13.02;5.07;;;;;;;28.00;45.38;92748.75;4988090;28;20112;-79
2022/05/28 10:06:17;;;;;;;12.38;4.68;;;;;;;27.96;46.77;92742.59;4988871;28;20132;-78
2022/05/28 10:08:44;;;;;;;9.02;4.60;;;;;;;27.51;46.03;92726.50;4989022;28;20046;-78
2022/05/28 10:11:15;;;;;;;14.60;4.80;;;;;;;27.24;47.28;92738.41;4988830;28;20038;-78
2022/05/28 10:13:44;;;;;;;11.70;4.55;;;;;;;27.35;47.69;92735.03;4989167;28;20043;-78
2022/05/28 10:16:12;;;;;;;14.88;9.45;;;;;;;28.12;48.21;92721.56;4988948;28;20521;-79
2022/05/28 10:18:48;;;;;;;10.73;5.50;;;;;;;28.79;44.93;92723.06;4988871;28;20057;-78
2022/05/28 10:21:17;;;;;;;19.98;15.02;;;;;;;28.38;45.31;92705.34;4988530;28;20054;-79
2022/05/28 10:23:51;;;;;;;11.30;5.30;;;;;;;28.63;43.37;92701.84;4988704;28;20053;-79
2022/05/28 10:26:21;;;;;;;15.38;5.40;;;;;;;29.00;44.52;92714.16;4989109;28;20050;-79
2022/05/28 10:28:50;;;;;;;11.65;4.65;;;;;;;28.65;43.61;92702.31;4988885;28;20058;-80
2022/05/28 10:31:23;;;;;;;8.32;4.55;;;;;;;28.75;43.23;92703.69;4988681;28;20042;-79
2022/05/28 10:33:51;;;;;;;15.82;6.57;;;;;;;29.00;43.92;92707.03;4988632;28;20552;-79
2022/05/28 10:36:23;;;;;;;11.88;4.95;;;;;;;29.10;43.38;92699.72;4984127;28;20046;-79
2022/05/28 10:39:10;;;;;;;13.25;4.95;;;;;;;29.98;42.27;92697.97;4988632;28;20043;-79
2022/05/28 10:41:38;;;;;;;15.63;7.32;;;;;;;30.60;40.68;92675.41;4988590;28;20058;-79
2022/05/28 10:44:05;;;;;;;16.73;8.07;;;;;;;31.32;40.51;92694.50;4988888;28;20593;-79
2022/05/28 10:46:45;;;;;;;11.13;5.45;;;;;;;31.90;37.35;92690.13;4988741;28;20054;-79
2022/05/28 10:49:29;;;;;;;11.93;6.53;;;;;;;31.47;36.37;92679.63;4989184;28;20405;-78
2022/05/28 10:52:04;;;;;;;12.23;5.63;;;;;;;32.05;37.30;92685.00;4989075;28;20501;-78
2022/05/28 10:54:44;;;;;;;14.32;7.50;;;;;;;31.97;37.61;92665.53;4990607;28;20057;-79
2022/05/28 10:57:48;;;;;;;10.93;4.80;;;;;;;31.56;38.14;92692.63;4988786;28;20054;-79
2022/05/28 11:00:19;;;;;;;10.77;4.28;;;;;;;30.38;39.06;92702.25;4989220;28;20054;-78
2022/05/28 11:03:39;;;;;;;10.32;4.93;;;;;;;30.20;39.95;92682.56;4991360;28;20042;-80
2022/05/28 11:06:42;;;;;;;17.60;8.82;;;;;;;30.61;40.52;92679.59;4932081;29;20052;-79
2022/05/28 11:09:17;;;;;;;15.45;10.07;;;;;;;30.56;40.06;92680.66;4929252;29;20191;-79
2022/05/28 11:11:53;;;;;;;14.13;9.10;;;;;;;30.72;39.17;92677.94;4970221;28;20041;-79
2022/05/28 11:15:05;;;;;;;18.48;11.10;;;;;;;30.26;40.64;92686.47;4999916;28;20046;-79
2022/05/28 11:17:56;;;;;;;11.43;5.20;;;;;;;30.10;38.82;92666.13;4902950;29;20059;-79
2022/05/28 11:20:29;;;;;;;15.45;5.85;;;;;;;30.33;39.66;92673.41;4993078;28;20412;-79
2022/05/28 11:23:18;;;;;;;11.18;4.63;;;;;;;30.16;39.98;92647.31;4992091;28;20047;-79
2022/05/28 11:26:00;;;;;;;12.60;5.22;;;;;;;30.18;40.71;92667.03;4992721;28;20039;-79
2022/05/28 11:29:03;;;;;;;12.38;5.38;;;;;;;29.75;38.73;92656.25;4994239;28;20054;-79
2022/05/28 11:31:47;;;;;;;12.45;4.80;;;;;;;29.40;39.38;92670.19;4953756;28;20139;-78
2022/05/28 11:34:18;;;;;;;14.80;5.47;;;;;;;28.97;40.82;92675.97;4993501;28;20046;-79
2022/05/28 11:36:49;;;;;;;14.82;5.07;;;;;;;28.97;41.63;92667.28;4994622;28;20054;-78
2022/05/28 11:39:24;;;;;;;11.57;5.80;;;;;;;27.95;47.50;92659.97;4991802;28;20109;-78
2022/05/28 11:41:57;;;;;;;11.25;4.40;;;;;;;27.17;50.83;92665.16;4991919;28;20062;-78
2022/05/28 11:44:29;;;;;;;10.57;4.93;;;;;;;26.67;54.68;92665.75;4992587;28;20042;-79
2022/05/28 11:46:58;;;;;;;10.20;5.13;;;;;;;26.49;56.19;92653.84;4988488;23;20058;-83
2022/05/28 11:52:26;;;;;;;17.25;8.48;;;;;;;26.31;58.31;92658.50;4973321;28;20057;-82